Time;durP1;ratioP1;P1;durP2;ratioP2;P2;SDS_P1;SDS_P2;PMS_P1;PMS_P2;Temp;Humidity;BMP_temperature;BMP_pressure;BME280_temperature;BME280_humidity;BME280_pressure;Samples;Min_cycle;Max_cycle;Signal;HPM_P1;HPM_P2
2024/01/15 00:02:10;;;;;;;11.53;1.10;;;3.30;99.90;;;;;;5110600;27;20410;-91
2024/01/15 00:04:39;;;;;;;10.40;1.10;;;3.20;99.90;;;;;;5128875;27;20452;-92
2024/01/15 00:07:08;;;;;;;11.77;1.05;;;3.30;99.90;;;;;;5111714;27;20395;-94
2024/01/15 00:09:34;;;;;;;10.60;1.48;;;3.50;99.90;;;;;;5128354;27;20416;-94
2024/01/15 00:12:00;;;;;;;11.70;1.20;;;3.40;99.90;;;;;;5111402;27;20399;-91
2024/01/15 00:14:26;;;;;;;14.65;1.30;;;3.30;99.90;;;;;;5128185;27;20398;-90
2024/01/15 00:16:55;;;;;;;11.43;1.63;;;3.50;99.90;;;;;;5129515;27;20430;-94
2024/01/15 00:19:22;;;;;;;12.18;1.70;;;3.50;99.90;;;;;;5111427;27;20467;-93
2024/01/15 00:21:48;;;;;;;14.02;1.20;;;3.50;99.90;;;;;;5111545;27;20391;-93
2024/01/15 00:24:13;;;;;;;15.20;1.67;;;3.50;99.90;;;;;;5127950;27;20486;-91
2024/01/15 00:26:40;;;;;;;13.30;1.40;;;3.70;99.90;;;;;;5128757;27;20449;-92
2024/01/15 00:29:07;;;;;;;15.07;1.97;;;3.50;99.90;;;;;;5112752;27;20438;-90
2024/01/15 00:31:33;;;;;;;13.30;1.40;;;3.60;99.90;;;;;;5131989;27;20462;-92
2024/01/15 00:34:02;;;;;;;16.00;1.60;;;3.60;99.90;;;;;;5132112;27;20416;-94
2024/01/15 00:36:28;;;;;;;13.68;2.08;;;3.90;99.90;;;;;;5131843;27;20400;-94
2024/01/15 00:38:55;;;;;;;13.80;1.80;;;3.60;99.90;;;;;;5146397;27;20847;-93
2024/01/15 00:41:23;;;;;;;13.18;1.38;;;3.50;99.90;;;;;;5127793;27;20398;-92
2024/01/15 00:43:51;;;;;;;11.13;0.83;;;3.50;99.90;;;;;;5110833;28;20426;-94
2024/01/15 00:46:17;;;;;;;11.20;1.17;;;3.40;99.90;;;;;;5111092;28;20465;-92
2024/01/15 00:48:43;;;;;;;7.82;0.60;;;3.40;99.90;;;;;;5111640;27;20422;-93
2024/01/15 00:51:08;;;;;;;9.65;0.60;;;3.40;99.90;;;;;;5111242;28;20409;-94
2024/01/15 00:53:34;;;;;;;8.10;0.80;;;3.30;99.90;;;;;;5113335;27;20973;-93
2024/01/15 00:56:00;;;;;;;10.57;0.60;;;3.20;99.90;;;;;;5115312;27;20398;-93
2024/01/15 00:58:26;;;;;;;7.37;0.50;;;3.20;99.90;;;;;;5134950;27;20540;-92
2024/01/15 01:00:52;;;;;;;7.30;0.50;;;3.10;99.90;;;;;;5134841;27;20400;-91
2024/01/15 01:03:18;;;;;;;10.03;0.70;;;3.10;99.90;;;;;;5135287;27;20396;-93
2024/01/15 01:05:44;;;;;;;9.20;1.00;;;3.00;99.90;;;;;;5135692;27;20428;-92
2024/01/15 01:08:10;;;;;;;14.80;0.90;;;2.90;99.90;;;;;;5134997;27;20411;-93
2024/01/15 01:10:36;;;;;;;12.25;0.98;;;2.90;99.90;;;;;;5152349;27;20763;-93
2024/01/15 01:13:04;;;;;;;11.23;1.25;;;2.90;99.90;;;;;;5135076;27;20393;-90
2024/01/15 01:15:30;;;;;;;11.43;0.90;;;2.90;99.90;;;;;;5139719;27;20438;-92
2024/01/15 01:17:55;;;;;;;9.77;0.55;;;2.80;99.90;;;;;;5120517;27;20459;-90
2024/01/15 01:20:21;;;;;;;7.78;0.47;;;2.70;99.90;;;;;;5133745;27;20432;-90
2024/01/15 01:22:47;;;;;;;6.20;0.55;;;2.90;99.90;;;;;;5133867;27;20443;-89
2024/01/15 01:25:12;;;;;;;4.68;0.40;;;2.90;99.90;;;;;;5134015;27;20425;-90
2024/01/15 01:27:38;;;;;;;4.97;0.30;;;2.90;99.90;;;;;;5134788;27;20403;-90
2024/01/15 01:30:04;;;;;;;5.13;0.30;;;2.90;99.90;;;;;;5134782;27;20397;-93
2024/01/15 01:32:36;;;;;;;8.57;0.32;;;2.80;99.90;;;;;;5135100;27;23039;-90
2024/01/15 01:35:02;;;;;;;8.13;0.40;;;2.80;99.90;;;;;;5134316;27;20393;-91
2024/01/15 01:37:28;;;;;;;8.52;0.45;;;2.70;99.90;;;;;;5134412;27;20775;-91
2024/01/15 01:39:53;;;;;;;6.73;0.30;;;2.80;99.90;;;;;;5134324;27;20404;-92
2024/01/15 01:42:19;;;;;;;8.93;0.50;;;2.60;99.90;;;;;;5134046;27;20836;-90
2024/01/15 01:44:45;;;;;;;8.30;0.60;;;2.50;99.90;;;;;;5151174;27;20450;-89
2024/01/15 01:47:11;;;;;;;7.07;0.70;;;2.50;99.90;;;;;;5134115;27;20426;-89
2024/01/15 01:49:37;;;;;;;8.73;0.60;;;2.40;99.90;;;;;;5134083;27;20401;-91
2024/01/15 01:52:05;;;;;;;10.77;0.80;;;2.40;99.90;;;;;;5134330;27;20397;-90
2024/01/15 01:54:32;;;;;;;11.85;1.23;;;2.40;99.90;;;;;;5133361;27;20389;-89
2024/01/15 01:56:58;;;;;;;12.52;1.27;;;2.30;99.90;;;;;;5133956;27;20393;-91
2024/01/15 01:59:27;;;;;;;13.88;1.00;;;2.30;99.90;;;;;;5133228;27;20444;-91
2024/01/15 02:01:54;;;;;;;10.50;1.05;;;2.30;99.90;;;;;;5133671;27;20389;-91
2024/01/15 02:04:23;;;;;;;13.20;1.35;;;2.20;99.90;;;;;;5133110;27;20404;-89
2024/01/15 02:06:49;;;;;;;15.98;1.38;;;2.20;99.90;;;;;;5133519;27;20392;-90
2024/01/15 02:09:15;;;;;;;17.02;1.23;;;2.40;99.90;;;;;;5133740;27;21101;-89
2024/01/15 02:11:42;;;;;;;15.40;1.50;;;2.30;99.90;;;;;;5133906;27;20401;-92
2024/01/15 02:14:09;;;;;;;17.05;1.67;;;2.40;99.90;;;;;;5150948;27;20400;-90
2024/01/15 02:16:35;;;;;;;20.15;1.98;;;2.50;99.90;;;;;;5133093;27;21030;-90
2024/01/15 02:19:00;;;;;;;13.50;1.30;;;2.60;99.90;;;;;;5133638;27;20429;-93
2024/01/15 02:21:28;;;;;;;15.85;1.70;;;2.70;99.90;;;;;;5150777;27;20385;-90
2024/01/15 02:23:54;;;;;;;12.27;1.23;;;2.80;99.90;;;;;;5132910;27;20461;-92
2024/01/15 02:26:21;;;;;;;8.85;0.70;;;2.80;99.90;;;;;;5132946;27;20399;-87
2024/01/15 02:28:48;;;;;;;7.85;0.50;;;2.90;99.90;;;;;;5150169;27;20407;-94
2024/01/15 02:31:14;;;;;;;6.88;0.77;;;2.90;99.90;;;;;;5119766;27;20799;-90
2024/01/15 02:33:42;;;;;;;7.35;0.50;;;2.90;99.90;;;;;;5112701;27;20399;-92
2024/01/15 02:36:08;;;;;;;8.25;0.45;;;3.00;99.90;;;;;;5112800;27;20474;-91
2024/01/15 02:38:33;;;;;;;9.68;0.80;;;3.10;99.90;;;;;;5112295;27;21073;-93
2024/01/15 02:40:59;;;;;;;9.48;0.57;;;3.30;99.90;;;;;;5112451;27;20950;-90
2024/01/15 02:43:24;;;;;;;9.20;0.60;;;3.10;99.90;;;;;;5127487;27;20416;-92
2024/01/15 02:45:50;;;;;;;10.03;0.80;;;3.00;99.90;;;;;;5132660;27;20401;-90
2024/01/15 02:48:16;;;;;;;9.95;0.85;;;3.00;99.90;;;;;;5133714;27;20409;-92
2024/01/15 02:50:41;;;;;;;9.43;0.80;;;2.90;99.90;;;;;;5132892;27;20474;-91
2024/01/15 02:53:07;;;;;;;10.35;0.75;;;2.80;99.90;;;;;;5133235;27;20493;-90
2024/01/15 02:55:33;;;;;;;10.13;0.90;;;2.80;99.90;;;;;;5132635;27;20404;-89
2024/01/15 02:57:59;;;;;;;14.60;1.10;;;2.80;99.90;;;;;;5133226;27;20490;-90
2024/01/15 03:00:25;;;;;;;10.47;1.10;;;2.70;99.90;;;;;;5132731;27;20857;-93
2024/01/15 03:02:51;;;;;;;12.60;0.70;;;2.70;99.90;;;;;;5132839;27;20385;-89
2024/01/15 03:05:17;;;;;;;14.02;1.40;;;3.00;99.90;;;;;;5133259;27;20397;-90
2024/01/15 03:07:43;;;;;;;14.32;1.23;;;2.80;99.90;;;;;;5132566;27;20401;-91
2024/01/15 03:10:09;;;;;;;11.65;0.90;;;3.00;99.90;;;;;;5132767;27;20408;-89
2024/01/15 03:12:35;;;;;;;13.68;1.27;;;2.90;99.90;;;;;;5131858;27;20385;-90
2024/01/15 03:15:00;;;;;;;14.85;1.38;;;3.00;99.90;;;;;;5132315;27;20495;-91
2024/01/15 03:17:26;;;;;;;13.43;1.00;;;3.00;99.90;;;;;;5131163;27;20674;-91
2024/01/15 03:19:52;;;;;;;10.52;1.20;;;3.00;99.90;;;;;;5132438;27;20436;-93
2024/01/15 03:22:17;;;;;;;14.20;1.43;;;3.10;99.90;;;;;;5132379;27;20405;-90
2024/01/15 03:24:43;;;;;;;15.80;1.53;;;3.00;99.90;;;;;;5132652;27;20401;-91
2024/01/15 03:27:09;;;;;;;17.73;1.92;;;3.00;99.90;;;;;;5149113;27;20393;-91
2024/01/15 03:29:35;;;;;;;12.97;1.70;;;3.00;99.90;;;;;;5149102;27;20409;-91
2024/01/15 03:32:00;;;;;;;9.05;0.70;;;3.10;99.90;;;;;;5132488;27;20409;-92
2024/01/15 03:34:26;;;;;;;8.98;0.65;;;3.20;99.90;;;;;;5124124;27;20412;-93
2024/01/15 03:36:52;;;;;;;7.75;0.68;;;3.20;99.90;;;;;;5100225;27;20491;-90
2024/01/15 03:39:18;;;;;;;7.83;0.67;;;3.30;99.90;;;;;;5110883;27;20423;-92
2024/01/15 03:41:43;;;;;;;6.43;0.43;;;3.40;99.90;;;;;;5129003;27;20403;-91
2024/01/15 03:44:09;;;;;;;6.20;0.40;;;3.40;99.90;;;;;;5111775;27;20431;-90
2024/01/15 03:46:35;;;;;;;5.25;0.32;;;3.50;99.90;;;;;;5110970;27;20907;-93
2024/01/15 03:49:00;;;;;;;10.50;0.80;;;3.50;99.90;;;;;;5111893;27;20399;-90
2024/01/15 03:51:26;;;;;;;10.50;0.90;;;3.40;99.90;;;;;;5110968;27;20402;-92
2024/01/15 03:53:52;;;;;;;16.97;1.00;;;3.50;99.90;;;;;;5129101;27;20406;-91
2024/01/15 03:56:17;;;;;;;11.55;1.00;;;3.40;99.90;;;;;;5110442;27;20395;-93
2024/01/15 03:58:43;;;;;;;19.65;1.58;;;3.50;99.90;;;;;;5111051;27;20425;-91
2024/01/15 04:01:10;;;;;;;15.43;1.77;;;3.50;99.90;;;;;;5110864;27;20889;-91
2024/01/15 04:03:36;;;;;;;15.98;1.20;;;3.40;99.90;;;;;;5111198;27;20403;-92
2024/01/15 04:06:01;;;;;;;11.02;1.00;;;3.30;99.90;;;;;;5111243;27;20414;-91
2024/01/15 04:08:27;;;;;;;8.18;0.80;;;3.20;99.90;;;;;;5110809;27;20411;-92
2024/01/15 04:10:52;;;;;;;7.80;0.55;;;3.20;99.90;;;;;;5128099;27;20398;-91
2024/01/15 04:13:18;;;;;;;6.43;0.50;;;3.00;99.90;;;;;;5110095;27;20500;-94
2024/01/15 04:15:44;;;;;;;5.23;0.20;;;2.80;99.90;;;;;;5110958;27;20768;-92
2024/01/15 04:18:09;;;;;;;4.47;0.30;;;2.70;99.90;;;;;;5110338;27;20479;-91
2024/01/15 04:20:35;;;;;;;3.63;0.20;;;2.70;99.90;;;;;;5111038;28;20410;-91
2024/01/15 04:23:01;;;;;;;3.50;0.25;;;2.60;99.90;;;;;;5110694;27;20415;-90
2024/01/15 04:25:27;;;;;;;5.68;0.30;;;2.50;99.90;;;;;;5127689;27;20403;-92
2024/01/15 04:27:52;;;;;;;2.22;0.10;;;2.50;99.90;;;;;;5110507;28;20399;-90
2024/01/15 04:30:18;;;;;;;10.37;1.10;;;2.40;99.90;;;;;;5110399;27;21016;-89
2024/01/15 04:32:44;;;;;;;5.23;0.20;;;2.30;99.90;;;;;;5110789;28;20407;-90
2024/01/15 04:35:09;;;;;;;8.18;0.85;;;2.30;99.90;;;;;;5110403;28;20396;-89
2024/01/15 04:37:35;;;;;;;6.20;0.57;;;2.30;99.90;;;;;;5110643;28;21120;-89
2024/01/15 04:40:03;;;;;;;11.83;1.30;;;2.20;99.90;;;;;;5110266;28;20398;-90
2024/01/15 04:42:29;;;;;;;6.05;0.57;;;2.20;99.90;;;;;;5110511;28;20402;-89
2024/01/15 04:44:55;;;;;;;7.28;0.40;;;2.10;99.90;;;;;;5110194;27;20391;-90
2024/01/15 04:47:20;;;;;;;10.27;0.80;;;2.10;99.90;;;;;;5127297;28;20454;-90
2024/01/15 04:49:46;;;;;;;13.40;1.17;;;2.10;99.90;;;;;;5111042;28;20761;-90
2024/01/15 04:52:12;;;;;;;10.70;1.02;;;2.10;99.90;;;;;;5109990;28;20421;-90
2024/01/15 04:54:38;;;;;;;12.23;1.10;;;2.10;99.90;;;;;;5110211;28;20394;-92
2024/01/15 04:57:04;;;;;;;13.03;1.53;;;2.20;99.90;;;;;;5110414;28;20490;-93
2024/01/15 04:59:29;;;;;;;11.52;1.10;;;2.40;99.90;;;;;;5110502;28;20426;-91
2024/01/15 05:01:55;;;;;;;10.18;1.30;;;2.30;99.90;;;;;;5110164;28;20394;-89
2024/01/15 05:04:21;;;;;;;11.93;1.10;;;2.40;99.90;;;;;;5110101;28;20402;-90
2024/01/15 05:06:47;;;;;;;10.63;1.05;;;2.50;99.90;;;;;;5127620;28;20398;-89
2024/01/15 05:09:13;;;;;;;13.73;1.20;;;2.50;99.90;;;;;;5110134;28;20406;-87
2024/01/15 05:11:39;;;;;;;11.32;1.00;;;2.40;99.90;;;;;;5110312;28;20769;-91
2024/01/15 05:14:05;;;;;;;13.75;1.40;;;2.60;99.90;;;;;;5109601;28;20406;-92
2024/01/15 05:16:30;;;;;;;9.87;0.90;;;2.40;99.90;;;;;;5113913;27;20461;-89
2024/01/15 05:18:56;;;;;;;11.38;0.75;;;2.20;99.90;;;;;;5130055;27;20433;-89
2024/01/15 05:21:22;;;;;;;12.50;1.30;;;2.20;99.90;;;;;;5110780;28;20451;-91
2024/01/15 05:23:47;;;;;;;10.20;1.17;;;2.20;99.90;;;;;;5110144;28;20434;-92
2024/01/15 05:26:13;;;;;;;12.03;1.40;;;2.20;99.90;;;;;;5109715;28;20445;-89
2024/01/15 05:28:41;;;;;;;14.43;1.40;;;2.20;99.90;;;;;;5110583;28;20586;-89
2024/01/15 05:31:07;;;;;;;10.75;1.48;;;2.30;99.90;;;;;;5109062;28;20534;-89
2024/01/15 05:33:33;;;;;;;9.40;1.10;;;2.20;99.90;;;;;;5110062;28;20435;-91
2024/01/15 05:35:59;;;;;;;13.30;1.23;;;2.20;99.90;;;;;;5141979;27;20408;-89
2024/01/15 05:38:24;;;;;;;13.50;1.05;;;2.20;99.90;;;;;;5119372;28;20422;-89
2024/01/15 05:40:50;;;;;;;17.00;1.67;;;2.30;99.90;;;;;;5111682;27;20411;-89
2024/01/15 05:43:16;;;;;;;15.50;2.05;;;2.40;99.90;;;;;;5114078;27;20398;-90
2024/01/15 05:45:43;;;;;;;16.27;2.10;;;2.20;99.90;;;;;;5151304;27;20464;-90
2024/01/15 05:48:09;;;;;;;12.00;1.35;;;2.10;99.90;;;;;;5134007;27;20392;-89
2024/01/15 05:50:35;;;;;;;11.82;1.02;;;2.10;99.90;;;;;;5133597;27;20894;-90
2024/01/15 05:53:00;;;;;;;14.90;1.58;;;2.20;99.90;;;;;;5133371;27;20401;-89
2024/01/15 05:55:26;;;;;;;13.30;1.10;;;2.00;99.90;;;;;;5133975;27;20480;-90
2024/01/15 05:57:52;;;;;;;15.68;1.27;;;2.00;99.90;;;;;;5133598;27;20428;-91
2024/01/15 06:00:18;;;;;;;13.20;1.30;;;2.00;99.90;;;;;;5133741;27;21118;-90
2024/01/15 06:02:44;;;;;;;16.23;1.33;;;1.90;99.90;;;;;;5127600;27;22617;-89
2024/01/15 06:05:09;;;;;;;14.63;1.08;;;1.80;99.90;;;;;;5092489;28;20392;-90
2024/01/15 06:07:38;;;;;;;12.63;1.30;;;1.80;99.90;;;;;;5127100;27;20466;-89
2024/01/15 06:10:06;;;;;;;14.00;1.20;;;1.70;99.90;;;;;;5092243;28;20740;-89
2024/01/15 06:12:33;;;;;;;13.13;1.40;;;1.70;99.90;;;;;;5092795;28;20485;-88
2024/01/15 06:14:59;;;;;;;14.30;1.80;;;2.00;99.90;;;;;;5106829;27;20403;-90
2024/01/15 06:17:25;;;;;;;14.43;1.73;;;1.70;99.90;;;;;;5112731;27;20403;-92
2024/01/15 06:19:50;;;;;;;15.57;1.20;;;1.80;99.90;;;;;;5113452;27;20422;-91
2024/01/15 06:22:16;;;;;;;15.27;1.87;;;1.90;99.90;;;;;;5112608;27;20417;-92
2024/01/15 06:24:42;;;;;;;14.80;1.40;;;2.20;99.90;;;;;;5148197;27;20425;-93
2024/01/15 06:27:08;;;;;;;11.68;0.75;;;2.20;99.90;;;;;;5130139;27;20402;-90
2024/01/15 06:29:37;;;;;;;12.50;1.17;;;2.20;99.90;;;;;;5112256;27;20781;-94
2024/01/15 06:32:04;;;;;;;11.15;1.40;;;2.20;99.90;;;;;;5129794;27;20418;-90
2024/01/15 06:34:30;;;;;;;12.67;0.97;;;2.20;99.90;;;;;;5113018;27;20420;-91
2024/01/15 06:36:55;;;;;;;12.10;1.00;;;2.10;99.90;;;;;;5112217;27;20395;-91
2024/01/15 06:39:21;;;;;;;11.70;1.10;;;2.10;99.90;;;;;;5112449;27;20478;-92
2024/01/15 06:41:47;;;;;;;10.48;1.15;;;2.00;99.90;;;;;;5112669;27;20908;-88
2024/01/15 06:44:13;;;;;;;9.02;0.98;;;2.10;99.90;;;;;;5111604;27;20895;-90
2024/01/15 06:46:48;;;;;;;10.20;0.85;;;1.80;99.90;;;;;;5129615;27;20410;-91
2024/01/15 06:49:13;;;;;;;8.27;0.88;;;1.90;99.90;;;;;;5112243;27;20403;-90
2024/01/15 06:51:39;;;;;;;8.82;0.90;;;1.90;99.90;;;;;;5112009;27;20411;-91
2024/01/15 06:54:05;;;;;;;8.50;0.60;;;1.90;99.90;;;;;;5111771;27;20409;-90
2024/01/15 06:56:31;;;;;;;8.25;0.60;;;1.90;99.90;;;;;;5120565;27;20397;-95
2024/01/15 06:58:57;;;;;;;8.25;0.63;;;1.90;99.90;;;;;;5133791;27;20421;-92
2024/01/15 07:01:23;;;;;;;7.18;0.70;;;1.90;99.90;;;;;;5132752;27;20420;-92
2024/01/15 07:03:48;;;;;;;10.85;0.57;;;1.80;99.90;;;;;;5132917;27;20403;-90
2024/01/15 07:06:14;;;;;;;11.55;1.17;;;1.90;99.90;;;;;;5132649;27;20403;-90
2024/01/15 07:08:41;;;;;;;10.02;1.55;;;2.00;99.90;;;;;;5150138;27;20397;-90
2024/01/15 07:11:07;;;;;;;10.67;1.10;;;1.90;99.90;;;;;;5131922;27;20489;-90
2024/01/15 07:13:33;;;;;;;13.10;0.83;;;2.20;99.90;;;;;;5132541;27;20405;-89
2024/01/15 07:15:59;;;;;;;11.80;1.03;;;1.90;99.90;;;;;;5132702;27;20407;-90
2024/01/15 07:18:25;;;;;;;11.07;1.10;;;2.00;99.90;;;;;;5132616;27;20481;-96
2024/01/15 07:20:51;;;;;;;12.60;0.90;;;2.00;99.90;;;;;;5132327;27;20404;-91
2024/01/15 07:23:17;;;;;;;11.85;1.17;;;2.00;99.90;;;;;;5145210;27;20407;-91
2024/01/15 07:25:43;;;;;;;10.32;0.90;;;2.10;99.90;;;;;;5113097;27;20410;-96
2024/01/15 07:28:09;;;;;;;8.60;0.60;;;2.50;99.90;;;;;;5112385;27;20395;-95
2024/01/15 07:30:35;;;;;;;7.10;0.60;;;2.20;99.90;;;;;;5112326;27;20399;-92
2024/01/15 07:33:01;;;;;;;6.85;0.45;;;2.30;99.90;;;;;;5111380;27;20411;-92
2024/01/15 07:35:26;;;;;;;5.30;0.30;;;2.20;99.90;;;;;;5111432;27;20402;-89
2024/01/15 07:37:52;;;;;;;5.63;0.27;;;2.20;99.90;;;;;;5111267;27;20413;-94
2024/01/15 07:40:18;;;;;;;4.60;0.30;;;2.10;99.90;;;;;;5112003;27;20395;-92
2024/01/15 07:42:43;;;;;;;4.78;0.60;;;2.10;99.90;;;;;;5111943;27;20406;-91
2024/01/15 07:45:11;;;;;;;6.97;0.50;;;2.00;99.90;;;;;;5111401;27;20410;-92
2024/01/15 07:47:36;;;;;;;5.15;0.20;;;2.00;99.90;;;;;;5111422;27;20408;-93
2024/01/15 07:50:03;;;;;;;7.88;0.20;;;2.00;99.90;;;;;;5111733;27;20407;-93
2024/01/15 07:52:28;;;;;;;4.15;0.20;;;1.90;99.90;;;;;;5111040;27;20442;-92
2024/01/15 07:54:54;;;;;;;4.50;0.30;;;1.90;99.90;;;;;;5112153;27;20398;-94
2024/01/15 07:57:20;;;;;;;6.20;0.27;;;1.80;99.90;;;;;;5111498;27;20419;-92
2024/01/15 07:59:46;;;;;;;6.00;0.77;;;2.10;99.90;;;;;;5111097;27;20801;-89
2024/01/15 08:02:11;;;;;;;5.47;0.57;;;2.00;99.90;;;;;;5127841;27;20394;-95
2024/01/15 08:04:40;;;;;;;5.78;0.20;;;1.60;99.90;;;;;;5111130;27;20395;-92
2024/01/15 08:07:07;;;;;;;8.20;0.40;;;1.90;99.90;;;;;;5110624;27;20915;-91
2024/01/15 08:09:33;;;;;;;4.80;0.38;;;1.80;99.90;;;;;;5112854;27;20399;-91
2024/01/15 08:11:59;;;;;;;4.13;0.30;;;1.80;99.90;;;;;;5111460;27;20386;-94
2024/01/15 08:14:25;;;;;;;2.30;0.20;;;1.80;99.90;;;;;;5110108;27;20395;-92
2024/01/15 08:16:53;;;;;;;4.05;0.10;;;1.80;99.90;;;;;;5110875;27;20824;-94
2024/01/15 08:19:19;;;;;;;3.15;0.30;;;1.80;99.90;;;;;;5094269;27;20446;-95
2024/01/15 08:21:45;;;;;;;3.30;0.20;;;1.90;99.90;;;;;;5111234;27;20438;-89
2024/01/15 08:24:11;;;;;;;5.13;0.40;;;2.20;99.90;;;;;;5110481;27;20394;-91
2024/01/15 08:26:37;;;;;;;3.55;0.20;;;2.00;99.90;;;;;;5111349;28;20395;-94
2024/01/15 08:29:03;;;;;;;6.03;0.43;;;2.10;99.90;;;;;;5111309;27;20395;-93
2024/01/15 08:31:28;;;;;;;5.93;0.40;;;2.20;99.90;;;;;;5110957;27;20402;-91
2024/01/15 08:33:55;;;;;;;7.47;0.40;;;2.40;99.90;;;;;;5111385;28;20411;-92
2024/01/15 08:36:30;;;;;;;5.75;0.32;;;2.30;99.90;;;;;;5120935;27;20478;-92
2024/01/15 08:38:56;;;;;;;5.00;0.40;;;2.30;99.90;;;;;;5132824;27;20758;-92
2024/01/15 08:41:23;;;;;;;4.30;0.20;;;2.20;99.90;;;;;;5149771;27;20397;-94
2024/01/15 08:43:49;;;;;;;5.17;0.37;;;2.10;99.90;;;;;;5131366;27;20405;-94
2024/01/15 08:46:14;;;;;;;7.13;0.47;;;2.20;99.90;;;;;;5130797;27;20890;-91
2024/01/15 08:48:40;;;;;;;7.47;0.83;;;2.00;99.90;;;;;;5132045;27;20400;-91
2024/01/15 08:51:06;;;;;;;9.65;0.75;;;2.00;99.90;;;;;;5131888;27;20418;-95
2024/01/15 08:53:32;;;;;;;7.65;0.60;;;2.00;99.90;;;;;;5131072;27;20496;-90
2024/01/15 08:55:58;;;;;;;11.17;0.73;;;2.00;99.90;;;;;;5131178;27;20397;-93
2024/01/15 08:58:24;;;;;;;7.90;0.60;;;2.00;99.90;;;;;;5130661;27;21244;-89
2024/01/15 09:00:50;;;;;;;10.60;0.60;;;2.00;99.90;;;;;;5131092;27;20408;-90
2024/01/15 09:03:16;;;;;;;7.65;0.77;;;2.10;99.90;;;;;;5130768;27;20432;-93
2024/01/15 09:05:42;;;;;;;10.40;0.70;;;2.10;99.90;;;;;;5130917;27;20455;-90
2024/01/15 09:08:08;;;;;;;8.13;0.93;;;2.10;99.90;;;;;;5130512;27;20399;-90
2024/01/15 09:10:34;;;;;;;11.48;1.05;;;2.20;99.90;;;;;;5128996;27;20449;-89
2024/01/15 09:13:00;;;;;;;12.48;1.77;;;2.30;99.90;;;;;;5124092;27;20404;-90
2024/01/15 09:15:25;;;;;;;8.60;1.02;;;2.50;99.90;;;;;;5150437;27;20920;-91
2024/01/15 09:17:51;;;;;;;13.40;1.50;;;2.60;99.90;;;;;;5138941;27;20423;-95
2024/01/15 09:20:27;;;;;;;9.48;0.98;;;2.60;99.90;;;;;;5121385;27;20452;-94
2024/01/15 09:22:54;;;;;;;12.83;1.00;;;2.50;99.90;;;;;;5136379;27;20420;-93
2024/01/15 09:25:19;;;;;;;14.35;1.20;;;2.40;99.90;;;;;;5118191;27;20397;-90
2024/01/15 09:27:45;;;;;;;8.67;0.87;;;2.40;99.90;;;;;;5135089;27;20420;-90
2024/01/15 09:30:14;;;;;;;11.52;0.88;;;2.30;99.90;;;;;;5135563;27;20412;-96
2024/01/15 09:32:40;;;;;;;13.18;1.30;;;2.20;99.90;;;;;;5136021;27;20471;-94
2024/01/15 09:35:06;;;;;;;12.37;1.40;;;2.20;99.90;;;;;;5138579;27;20400;-91
2024/01/15 09:37:32;;;;;;;11.98;0.95;;;2.20;99.90;;;;;;5134566;27;20436;-93
2024/01/15 09:39:57;;;;;;;13.67;1.50;;;2.00;99.90;;;;;;5135103;27;20502;-93
2024/01/15 09:42:25;;;;;;;10.50;1.17;;;2.20;99.90;;;;;;5137248;27;20400;-91
2024/01/15 09:44:52;;;;;;;13.43;1.33;;;2.40;99.90;;;;;;5134926;27;20393;-91
2024/01/15 09:47:21;;;;;;;10.57;1.10;;;2.30;99.90;;;;;;5134570;27;20404;-92
2024/01/15 09:49:48;;;;;;;12.33;1.33;;;2.50;99.90;;;;;;5137906;27;20403;-95
2024/01/15 09:52:17;;;;;;;9.32;0.80;;;2.50;99.90;;;;;;5136614;27;20481;-94
2024/01/15 09:54:47;;;;;;;9.00;0.60;;;2.60;99.90;;;;;;5120168;27;20747;-96
2024/01/15 09:57:13;;;;;;;9.40;0.70;;;2.60;99.90;;;;;;5134683;27;20436;-92
2024/01/15 09:59:42;;;;;;;11.40;0.90;;;2.70;99.90;;;;;;5135747;27;20459;-93
2024/01/15 10:02:09;;;;;;;7.43;0.65;;;3.20;99.90;;;;;;5152369;27;20436;-90
2024/01/15 10:04:35;;;;;;;5.95;0.30;;;3.50;99.90;;;;;;5133922;27;20413;-96
2024/01/15 10:07:01;;;;;;;6.60;0.40;;;3.30;99.90;;;;;;5122894;27;20414;-90
2024/01/15 10:09:26;;;;;;;8.18;0.60;;;3.10;99.90;;;;;;5129732;27;20947;-92
2024/01/15 10:11:52;;;;;;;8.65;0.60;;;2.90;99.90;;;;;;5113849;27;20394;-95
2024/01/15 10:14:19;;;;;;;9.07;0.95;;;2.80;99.90;;;;;;5112856;27;20750;-91
2024/01/15 10:16:45;;;;;;;7.53;0.70;;;2.80;99.90;;;;;;5113840;27;20411;-94
2024/01/15 10:19:10;;;;;;;6.03;0.30;;;2.90;99.90;;;;;;5113511;27;20427;-94
2024/01/15 10:21:37;;;;;;;5.17;0.50;;;2.90;99.90;;;;;;5112153;27;20417;-92
2024/01/15 10:24:04;;;;;;;5.20;0.35;;;2.70;99.90;;;;;;5130072;27;20994;-93
2024/01/15 10:26:30;;;;;;;7.05;0.85;;;2.60;99.90;;;;;;5140219;27;20482;-92
2024/01/15 10:28:56;;;;;;;7.53;0.43;;;2.50;99.90;;;;;;5112746;27;20405;-92
2024/01/15 10:31:22;;;;;;;10.37;0.50;;;2.80;99.90;;;;;;5113127;27;20395;-90
2024/01/15 10:33:51;;;;;;;6.45;0.43;;;2.50;99.90;;;;;;5120607;27;20453;-92
2024/01/15 10:36:17;;;;;;;9.77;0.73;;;2.70;99.90;;;;;;5133313;27;20492;-92
2024/01/15 10:38:45;;;;;;;7.38;0.50;;;2.50;99.90;;;;;;5132923;27;20779;-95
2024/01/15 10:41:11;;;;;;;7.53;0.50;;;2.60;99.90;;;;;;5133274;27;20500;-90
2024/01/15 10:43:37;;;;;;;6.70;0.60;;;2.60;99.90;;;;;;5132379;27;20393;-94
2024/01/15 10:46:03;;;;;;;6.97;0.32;;;2.60;99.90;;;;;;5132154;27;20443;-89
2024/01/15 10:48:30;;;;;;;7.25;0.68;;;2.60;99.90;;;;;;5142714;27;20391;-93
2024/01/15 10:50:59;;;;;;;9.63;0.70;;;2.60;99.90;;;;;;5112240;27;20456;-89
2024/01/15 10:53:25;;;;;;;8.75;0.60;;;2.50;99.90;;;;;;5109969;27;20475;-93
2024/01/15 10:55:51;;;;;;;10.43;0.43;;;2.50;99.90;;;;;;5128991;27;21274;-91
2024/01/15 10:58:18;;;;;;;8.35;0.68;;;2.50;99.90;;;;;;5111845;27;20939;-91
2024/01/15 11:00:44;;;;;;;9.52;0.47;;;2.60;99.90;;;;;;5128655;27;20399;-92
2024/01/15 11:03:10;;;;;;;6.10;0.30;;;2.60;99.90;;;;;;5113770;27;20399;-89
2024/01/15 11:05:42;;;;;;;7.30;0.40;;;2.60;99.90;;;;;;5131539;27;20401;-91
2024/01/15 11:08:09;;;;;;;7.80;0.40;;;2.80;99.90;;;;;;5132075;27;20752;-89
2024/01/15 11:10:42;;;;;;;6.93;0.30;;;2.60;99.90;;;;;;5132419;27;21075;-94
2024/01/15 11:13:22;;;;;;;4.57;0.40;;;2.60;99.90;;;;;;5132385;27;20408;-89
2024/01/15 11:16:06;;;;;;;6.45;0.38;;;2.70;99.90;;;;;;5132565;27;20397;-95
2024/01/15 11:18:37;;;;;;;3.70;0.10;;;2.70;99.90;;;;;;5132007;27;20545;-91
2024/01/15 11:21:15;;;;;;;4.28;0.15;;;2.80;99.90;;;;;;5132605;27;20408;-94
2024/01/15 11:23:48;;;;;;;3.05;0.17;;;2.80;99.90;;;;;;5148824;27;20401;-94
2024/01/15 11:26:43;;;;;;;2.85;0.15;;;2.70;99.90;;;;;;5132146;27;21047;-93
2024/01/15 11:29:28;;;;;;;4.18;0.28;;;2.70;99.90;;;;;;5130356;27;20480;-93
2024/01/15 11:32:10;;;;;;;3.50;0.30;;;2.50;99.90;;;;;;5117166;27;20410;-92
2024/01/15 11:35:02;;;;;;;5.63;0.40;;;2.20;99.90;;;;;;5124117;27;20396;-95
2024/01/15 11:37:47;;;;;;;6.32;0.40;;;1.90;99.90;;;;;;5131809;27;20397;-91
2024/01/15 11:40:14;;;;;;;4.55;0.40;;;1.80;99.90;;;;;;5132274;27;20785;-93
2024/01/15 11:42:39;;;;;;;6.70;0.47;;;1.80;99.90;;;;;;5132283;27;20737;-89
2024/01/15 11:45:05;;;;;;;5.10;0.30;;;1.70;99.90;;;;;;5131155;27;20472;-93
2024/01/15 11:48:00;;;;;;;7.03;0.70;;;1.80;99.90;;;;;;5131629;27;20401;-89
2024/01/15 11:50:29;;;;;;;4.82;0.47;;;1.90;99.90;;;;;;5131864;27;20408;-93
2024/01/15 11:53:03;;;;;;;8.38;0.80;;;1.90;99.90;;;;;;5131351;27;20404;-93
2024/01/15 11:55:41;;;;;;;6.50;0.40;;;2.00;99.90;;;;;;5130929;27;20914;-92
2024/01/15 11:58:10;;;;;;;10.43;1.02;;;2.20;99.90;;;;;;5131563;27;21162;-94
2024/01/15 12:00:43;;;;;;;5.72;0.57;;;2.20;99.90;;;;;;5131557;27;20450;-90
2024/01/15 12:03:10;;;;;;;9.38;0.60;;;2.20;99.90;;;;;;5131770;27;20432;-92
2024/01/15 12:05:38;;;;;;;8.47;0.60;;;2.40;99.90;;;;;;5130911;27;20396;-93
2024/01/15 12:08:10;;;;;;;8.75;0.85;;;2.30;99.90;;;;;;5131286;27;20393;-90
2024/01/15 12:10:37;;;;;;;8.63;0.60;;;2.40;99.90;;;;;;5130726;27;20389;-91
2024/01/15 12:13:17;;;;;;;11.95;1.80;;;2.40;99.90;;;;;;5133691;27;20562;-89
2024/01/15 12:15:44;;;;;;;9.70;1.00;;;2.50;99.90;;;;;;5127132;27;20568;-89
2024/01/15 12:18:15;;;;;;;7.45;0.80;;;2.60;99.90;;;;;;5126856;27;20979;-91
2024/01/15 12:20:42;;;;;;;8.80;0.73;;;2.60;99.90;;;;;;5147296;27;20440;-90
2024/01/15 12:23:08;;;;;;;13.57;1.30;;;2.70;99.90;;;;;;5130236;27;21338;-91
2024/01/15 12:25:34;;;;;;;10.68;0.98;;;2.80;99.90;;;;;;5109131;27;20478;-91
2024/01/15 12:28:01;;;;;;;7.97;1.00;;;3.00;99.90;;;;;;5109500;27;20418;-93
2024/01/15 12:30:33;;;;;;;11.43;0.73;;;2.80;99.90;;;;;;5109995;28;20839;-94
2024/01/15 12:33:03;;;;;;;7.03;0.52;;;2.70;99.90;;;;;;5110234;28;20407;-94
2024/01/15 12:35:30;;;;;;;11.50;0.85;;;2.20;99.90;;;;;;5094310;28;21163;-92
2024/01/15 12:37:56;;;;;;;9.90;0.63;;;2.00;99.90;;;;;;5126976;28;20429;-90
2024/01/15 12:40:22;;;;;;;10.88;1.02;;;1.80;99.90;;;;;;5108033;28;21136;-89
2024/01/15 12:42:48;;;;;;;7.53;0.90;;;2.20;99.90;;;;;;5109847;28;20391;-90
2024/01/15 12:45:14;;;;;;;10.98;1.27;;;2.50;99.90;;;;;;5109646;28;20410;-89
2024/01/15 12:47:41;;;;;;;6.40;1.05;;;2.60;99.90;;;;;;5109385;28;20418;-88
2024/01/15 12:50:09;;;;;;;7.53;0.60;;;2.80;99.90;;;;;;5142588;27;20456;-91
2024/01/15 12:52:34;;;;;;;7.40;0.50;;;2.80;99.90;;;;;;5133766;27;20404;-93